createdAt,value
2022-10-28T00:02:44.836Z,45.80
2022-10-28T00:08:56.845Z,46.10
2022-10-28T00:15:18.331Z,45.80
2022-10-28T00:21:30.972Z,45.10
2022-10-28T00:27:39.773Z,45.10
2022-10-28T00:34:03.504Z,45.70
2022-10-28T00:40:18.328Z,46.10
2022-10-28T00:46:31.665Z,46.40
2022-10-28T00:52:47.776Z,46.90
2022-10-28T00:58:59.612Z,46.50
2022-10-28T01:05:15.452Z,46.60
2022-10-28T01:11:46.413Z,46.90
2022-10-28T01:18:04.977Z,46.70
2022-10-28T01:24:30.450Z,46.50
2022-10-28T01:30:51.187Z,46.50
2022-10-28T01:37:06.223Z,46.50
2022-10-28T01:43:18.897Z,47.10
2022-10-28T01:49:36.556Z,47.30
2022-10-28T01:55:51.118Z,46.90
2022-10-28T02:02:05.776Z,47.20
2022-10-28T02:08:46.281Z,47.30
2022-10-28T02:15:22.930Z,47.30
2022-10-28T02:21:44.193Z,47.20
2022-10-28T02:27:59.651Z,47.00
2022-10-28T02:34:14.391Z,47.40
2022-10-28T02:40:29.434Z,47.30
2022-10-28T02:46:45.605Z,47.40
2022-10-28T02:52:59.607Z,47.00
2022-10-28T02:59:15.868Z,46.90
2022-10-28T03:05:26.126Z,47.20
2022-10-28T03:11:40.231Z,47.10
2022-10-28T03:17:55.835Z,47.10
2022-10-28T03:24:09.839Z,46.70
2022-10-28T03:30:26.143Z,46.80
2022-10-28T03:36:36.536Z,47.10
2022-10-28T03:42:52.611Z,47.20
2022-10-28T03:49:07.757Z,47.20
2022-10-28T03:55:20.762Z,46.90
2022-10-28T04:01:37.227Z,47.10
2022-10-28T04:07:52.183Z,47.20
2022-10-28T04:14:02.924Z,47.30
2022-10-28T04:20:21.978Z,47.10
2022-10-28T04:26:34.884Z,46.70
2022-10-28T04:32:49.510Z,47.00
2022-10-28T04:38:59.344Z,47.10
2022-10-28T04:45:13.375Z,47.10
2022-10-28T04:51:28.083Z,47.00
2022-10-28T04:57:42.451Z,46.90
2022-10-28T05:03:59.227Z,47.20
2022-10-28T05:10:15.208Z,47.20
2022-10-28T05:16:31.289Z,47.20
2022-10-28T05:22:45.002Z,47.20
2022-10-28T05:29:00.881Z,47.20
2022-10-28T05:35:15.417Z,47.20
2022-10-28T05:41:34.042Z,47.20
2022-10-28T05:47:49.134Z,47.20
2022-10-28T05:54:00.728Z,47.00
2022-10-28T06:00:20.871Z,47.00
2022-10-28T06:06:32.187Z,47.10
2022-10-28T06:12:44.029Z,47.20
2022-10-28T06:19:00.125Z,47.10
2022-10-28T06:25:13.565Z,47.00
2022-10-28T06:31:27.308Z,47.00
2022-10-28T06:37:42.105Z,47.20
2022-10-28T06:43:54.314Z,47.10
2022-10-28T06:50:07.830Z,47.10
2022-10-28T06:56:21.025Z,47.20
2022-10-28T07:02:32.619Z,47.70
2022-10-28T07:08:44.593Z,47.10
2022-10-28T07:14:56.504Z,47.10
2022-10-28T07:21:08.479Z,47.00
2022-10-28T07:27:21.546Z,47.00
2022-10-28T07:33:34.129Z,47.00
2022-10-28T07:39:50.155Z,47.10
2022-10-28T07:46:09.181Z,47.10
2022-10-28T07:52:20.781Z,47.00
2022-10-28T07:58:31.825Z,47.00
2022-10-28T08:04:49.149Z,47.10
2022-10-28T08:11:04.262Z,47.00
2022-10-28T08:17:18.108Z,47.00
2022-10-28T08:23:29.332Z,47.10
2022-10-28T08:29:43.690Z,47.10
2022-10-28T08:36:03.328Z,47.00
2022-10-28T08:42:26.116Z,47.10
2022-10-28T08:48:38.629Z,47.00
2022-10-28T08:54:52.958Z,47.10
2022-10-28T09:01:07.305Z,47.20
2022-10-28T09:07:25.469Z,47.10
2022-10-28T09:13:41.924Z,47.10
2022-10-28T09:19:55.973Z,47.10
2022-10-28T09:26:13.709Z,46.90
2022-10-28T09:32:29.157Z,47.00
2022-10-28T09:38:41.054Z,47.10
2022-10-28T09:44:57.116Z,47.10
2022-10-28T09:51:12.326Z,47.10
2022-10-28T09:57:24.193Z,47.20
2022-10-28T10:03:37.766Z,47.10
2022-10-28T10:09:53.519Z,47.00
2022-10-28T10:16:04.951Z,47.10
2022-10-28T10:22:21.827Z,46.90
2022-10-28T10:28:36.320Z,46.70
2022-10-28T10:34:49.858Z,46.80
2022-10-28T10:41:01.091Z,46.90
2022-10-28T10:47:32.743Z,46.90
2022-10-28T10:53:44.971Z,46.90
2022-10-28T10:59:57.358Z,47.00
2022-10-28T11:06:23.125Z,46.90
2022-10-28T11:12:33.536Z,47.00
2022-10-28T11:18:54.219Z,46.80
2022-10-28T11:25:36.386Z,46.50
2022-10-28T11:31:57.652Z,46.10
2022-10-28T11:38:20.412Z,46.20
2022-10-28T11:50:55.576Z,46.30
2022-10-28T11:57:14.222Z,46.30
2022-10-28T12:03:50.885Z,46.20
2022-10-28T12:10:16.954Z,46.20
2022-10-28T12:16:34.708Z,46.20
2022-10-28T12:22:53.096Z,45.70
2022-10-28T12:29:13.765Z,45.70
2022-10-28T12:35:26.412Z,45.60
2022-10-28T12:42:12.092Z,46.60
2022-10-28T12:48:24.926Z,46.70
2022-10-28T12:54:48.672Z,46.50
2022-10-28T13:01:04.858Z,45.80
2022-10-28T13:07:40.584Z,45.60
2022-10-28T13:13:53.161Z,46.50
2022-10-28T13:20:16.042Z,47.10
2022-10-28T13:26:37.408Z,46.50
2022-10-28T13:32:51.546Z,45.50
2022-10-28T13:39:08.656Z,46.10
2022-10-28T13:45:47.407Z,46.40
2022-10-28T13:52:01.205Z,47.10
2022-10-28T13:58:21.589Z,47.80
2022-10-28T14:04:39.687Z,46.60
2022-10-28T14:11:03.722Z,46.00
2022-10-28T14:17:24.803Z,46.50
2022-10-28T14:24:22.930Z,46.20
2022-10-28T14:30:36.207Z,46.40
2022-10-28T14:36:50.566Z,46.40
2022-10-28T14:43:13.833Z,46.00
2022-10-28T14:49:29.181Z,45.50
2022-10-28T14:55:46.148Z,45.10
2022-10-28T15:02:04.802Z,44.90
2022-10-28T15:08:24.419Z,45.00
2022-10-28T15:14:40.040Z,44.90
2022-10-28T15:20:52.962Z,44.90
2022-10-28T15:27:08.429Z,44.70
2022-10-28T15:33:35.426Z,44.50
2022-10-28T15:39:50.095Z,44.40
2022-10-28T15:46:01.118Z,44.20
2022-10-28T15:52:41.682Z,44.10
2022-10-28T15:58:54.057Z,43.90
2022-10-28T16:05:07.460Z,44.00
2022-10-28T16:11:27.014Z,44.00
2022-10-28T16:17:42.206Z,44.20
2022-10-28T16:23:59.624Z,44.00
2022-10-28T16:30:20.370Z,44.10
2022-10-28T16:36:35.783Z,44.20
2022-10-28T16:42:53.891Z,44.20
2022-10-28T16:49:09.800Z,44.40
2022-10-28T16:55:27.588Z,43.90
2022-10-28T17:01:45.912Z,44.40
2022-10-28T17:07:58.306Z,44.70
2022-10-28T17:14:09.692Z,44.60
2022-10-28T17:20:21.598Z,45.20
2022-10-28T17:26:39.596Z,44.60
2022-10-28T17:32:53.226Z,44.70
2022-10-28T17:39:13.656Z,44.70
2022-10-28T17:45:23.761Z,44.70
2022-10-28T17:51:38.120Z,44.60
2022-10-28T17:57:54.509Z,44.60
2022-10-28T18:04:15.045Z,44.20
2022-10-28T18:10:28.461Z,44.30
2022-10-28T18:16:44.186Z,44.40
2022-10-28T18:22:56.641Z,44.60
2022-10-28T18:29:10.879Z,44.50
2022-10-28T18:35:28.382Z,44.30
2022-10-28T18:41:45.262Z,44.40
2022-10-28T18:48:02.066Z,44.50
2022-10-28T18:54:20.947Z,44.70
2022-10-28T19:00:35.855Z,44.60
2022-10-28T19:06:51.520Z,44.60
2022-10-28T19:13:05.891Z,44.60
2022-10-28T19:19:24.649Z,44.60
2022-10-28T19:25:40.120Z,44.50
2022-10-28T19:31:56.842Z,44.60
2022-10-28T19:38:09.883Z,44.70
2022-10-28T19:44:25.214Z,44.40
2022-10-28T19:50:40.678Z,44.60
2022-10-28T19:56:56.229Z,44.70
2022-10-28T20:03:11.646Z,44.80
2022-10-28T20:09:29.077Z,45.40
2022-10-28T20:15:42.955Z,44.90
2022-10-28T20:21:56.391Z,44.80
2022-10-28T20:28:13.448Z,45.00
2022-10-28T20:34:29.850Z,44.60
2022-10-28T20:40:48.341Z,44.80
2022-10-28T20:47:00.528Z,44.70
2022-10-28T20:53:13.832Z,44.80
2022-10-28T20:59:28.550Z,44.70
2022-10-28T21:05:41.664Z,44.90
2022-10-28T21:12:00.391Z,45.00
2022-10-28T21:18:13.945Z,45.60
2022-10-28T21:24:29.481Z,44.90
2022-10-28T21:30:41.243Z,44.90
2022-10-28T21:36:49.815Z,45.10
2022-10-28T21:43:03.213Z,45.20
2022-10-28T21:49:18.059Z,45.30
2022-10-28T21:55:45.732Z,44.90
2022-10-28T22:01:45.434Z,45.30
2022-10-28T22:08:03.047Z,45.50
2022-10-28T22:14:19.816Z,45.70
2022-10-28T22:20:33.173Z,45.70
2022-10-28T22:26:47.317Z,45.40
2022-10-28T22:33:04.142Z,45.80
2022-10-28T22:39:20.171Z,46.10
2022-10-28T22:45:35.860Z,47.10
2022-10-28T22:51:50.160Z,46.40
2022-10-28T22:58:06.791Z,46.10
2022-10-28T23:04:24.962Z,44.90
2022-10-28T23:10:41.229Z,45.90
2022-10-28T23:16:54.538Z,46.30
2022-10-28T23:23:12.808Z,46.60
2022-10-28T23:29:28.886Z,46.00
2022-10-28T23:35:44.966Z,45.10
2022-10-28T23:42:02.951Z,45.00
2022-10-28T23:48:18.819Z,45.30
2022-10-28T23:54:35.336Z,46.80
